Flight Track Log - Related Links

Times and Time Zones

All times are in EDT time to prevent confusion due to time zone crossing. See the ASQ4501 flight status page for this flight to view local times or setup timezone preferences in your user account.

Time Position Orientation Groundspeed Altitude Reporting Facility
EDT Latitude Longitude Course Direction KTS MPH feet Rate Location/Type
Wed 05:53:13 PM 41.1167 -73.7500 276° West 153 176 3,000  Level New York TRACON
Wed 05:55:00 PM 41.0833 -74.0435 270° West  Level FlightAware Approximate
Wed 05:55:25 PM 41.1581 -73.8853 292° West 207 238 6,700  Level New York Center
Wed 05:56:00 PM 41.0938 -74.1646 277° West  Level FlightAware Approximate
Wed 05:56:26 PM 41.1831 -73.9664 292° West 218 251 10,200  Level New York Center
Wed 05:57:00 PM 41.1041 -74.2858 276° West  Level FlightAware Approximate
Wed 05:57:26 PM 41.2078 -74.0447 293° West 218 251 11,200  Level New York Center
Wed 05:58:00 PM 41.1134 -74.4071 276° West  Level FlightAware Approximate
Wed 05:58:27 PM 41.2281 -74.1450 285° West 265 305 12,200  Level New York Center
Wed 05:59:27 PM 41.1572 -74.2186 218° Southwest 278 320 13,000 908 Climbing New York Center
Wed 06:00:26 PM 41.0556 -74.2683 200° South 323 372 14,000 1,119 Climbing New York Center
Wed 06:01:25 PM 40.9667 -74.3161 202° Southwest 374 430 15,200 1,059 Climbing New York Center
Wed 06:02:25 PM 40.9589 -74.4364 265° West 309 356 16,100 446 Climbing New York Center
Wed 06:03:26 PM 41.0186 -74.5250 312° West 286 329 16,100  Level New York Center
Wed 06:04:27 PM 41.0842 -74.6222 312° West 343 395 16,100 397 Level New York Center
Wed 06:05:27 PM 41.1753 -74.6992 328° Northwest 353 406 16,900 1,109 Climbing New York Center
Wed 06:06:26 PM 41.2483 -74.7611 327° Northwest 353 406 18,300 1,322 Climbing New York Center
Wed 06:07:25 PM 41.3292 -74.8322 327° Northwest 348 400 19,500 1,100 Climbing New York Center
Wed 06:08:26 PM 41.4142 -74.9039 328° Northwest 354 407 20,500 992 Climbing New York Center
Wed 06:09:26 PM 41.4839 -74.9911 317° Northwest 354 407 21,500 992 Climbing New York Center
Wed 06:10:27 PM 41.5253 -75.1131 294° West 348 400 22,500 1,000 Climbing New York Center
Wed 06:11:26 PM 41.5667 -75.2350 294° West 358 412 23,500 1,077 Climbing New York Center
Wed 06:12:24 PM 41.6100 -75.3569 295° West 363 418 24,600 1,050 Climbing New York Center
Wed 06:13:26 PM 41.6550 -75.4794 296° West 363 418 25,600 984 Climbing New York Center
Wed 06:14:26 PM 41.6961 -75.6019 294° West 363 418 26,600 1,008 Climbing New York Center
Wed 06:15:25 PM 41.7369 -75.7189 295° West 363 418 27,600 1,000 Climbing New York Center
Wed 06:16:26 PM 41.7733 -75.8411 292° West 357 411 28,600 1,000 Climbing New York Center
Wed 06:17:25 PM 41.8100 -75.9608 292° West 357 411 29,600 1,000 Climbing New York Center
Wed 06:18:26 PM 41.8464 -76.0778 293° West 352 405 30,600 1,091 Climbing New York Center
Wed 06:19:26 PM 41.8764 -76.1972 289° West 352 405 31,800 1,220 Climbing New York Center
Wed 06:20:24 PM 41.9108 -76.3114 292° West 347 399 33,000 1,210 Climbing New York Center
Wed 06:21:25 PM 41.9419 -76.4422 288° West 341 392 34,200 1,109 Climbing New York Center
Wed 06:21:56 PM 41.9553 -76.4747 299° West 328 377 34,700 774 Climbing Cleveland Center
Wed 06:22:58 PM 41.9992 -76.6078 294° West 325 374 35,400 629 Climbing Cleveland Center
Wed 06:24:00 PM 42.0172 -76.7317 281° West 336 387 36,000 290 Climbing Cleveland Center
Wed 06:25:02 PM 42.0369 -76.8606 282° West 347 399 36,000  Level Cleveland Center
Wed 06:26:05 PM 42.0578 -76.9969 282° West 366 421 36,000  Level Cleveland Center
Wed 06:27:07 PM 42.0803 -77.1372 282° West 377 434 36,000  Level Cleveland Center
Wed 06:28:09 PM 42.1006 -77.2789 281° West 385 443 36,000  Level Cleveland Center
Wed 06:29:11 PM 42.1250 -77.4486 281° West 385 443 36,000  Level Cleveland Center
Wed 06:30:13 PM 42.1461 -77.5889 282° West 384 442 36,000  Level Cleveland Center
Wed 06:31:15 PM 42.1658 -77.7286 281° West 380 437 36,000  Level Cleveland Center
Wed 06:32:17 PM 42.1858 -77.8661 281° West 377 434 36,000  Level Cleveland Center
Wed 06:33:19 PM 42.2053 -78.0044 281° West 376 433 36,000  Level Cleveland Center
Wed 06:34:21 PM 42.2258 -78.1431 281° West 376 433 36,000  Level Cleveland Center
Wed 06:35:24 PM 42.2436 -78.2808 280° West 376 433 36,000  Level Cleveland Center
Wed 06:36:26 PM 42.2828 -78.4375 289° West 370 426 36,000  Level Cleveland Center
Wed 06:37:28 PM 42.3147 -78.5664 289° West 364 419 36,000  Level Cleveland Center
Wed 06:38:30 PM 42.3472 -78.6958 289° West 364 419 36,000  Level Cleveland Center
Wed 06:39:32 PM 42.3781 -78.8242 288° West 362 417 36,000  Level Cleveland Center
Wed 06:40:34 PM 42.4031 -78.9547 285° West 366 421 36,000  Level Cleveland Center
Wed 06:41:36 PM 42.4139 -79.1200 275° West 374 430 36,000  Level Cleveland Center
Wed 06:42:38 PM 42.4228 -79.2561 275° West 367 422 36,000  Level Cleveland Center
Wed 06:43:40 PM 42.4311 -79.3931 275° West 369 425 36,000  Level Cleveland Center
Wed 06:44:43 PM 42.4400 -79.5308 275° West 369 425 36,000  Level Cleveland Center
Wed 06:45:45 PM 42.4481 -79.6681 275° West 369 425 36,000  Level Cleveland Center
Wed 06:46:47 PM 42.4578 -79.8294 275° West 366 421 36,000  Level Cleveland Center
Wed 06:47:49 PM 42.4667 -79.9731 275° West 364 419 36,000  Level Cleveland Center
Wed 06:48:51 PM 42.4731 -80.1014 274° West 341 392 36,000  Level Cleveland Center
Wed 06:49:53 PM 42.4786 -80.2272 273° West 333 383 36,000  Level Cleveland Center
Wed 06:50:55 PM 42.4864 -80.3544 275° West 334 384 36,000  Level Cleveland Center
Wed 06:51:57 PM 42.4939 -80.4828 275° West 335 386 36,000  Level Cleveland Center
Wed 06:52:59 PM 42.5017 -80.6125 275° West 340 391 36,000  Level Cleveland Center
Wed 06:54:02 PM 42.5069 -80.7428 273° West 341 392 36,000  Level Cleveland Center
Wed 06:55:04 PM 42.5108 -80.8756 272° West 349 402 36,000  Level Cleveland Center
Wed 06:56:06 PM 42.5158 -81.0308 273° West 349 402 36,000  Level Cleveland Center
Wed 06:57:08 PM 42.5200 -81.1644 272° West 350 403 36,000  Level Cleveland Center
Wed 06:58:10 PM 42.5250 -81.2967 273° West 350 403 36,000  Level Cleveland Center
Wed 06:59:12 PM 42.5403 -81.4242 279° West 344 396 36,000  Level Cleveland Center
Wed 07:00:14 PM 42.5550 -81.5492 279° West 339 390 36,000  Level Cleveland Center
Wed 07:01:15 PM 42.5675 -81.6711 278° West 331 381 36,000  Level Cleveland Center
Wed 07:02:17 PM 42.5814 -81.7906 279° West 325 374 36,000  Level Cleveland Center
Wed 07:03:19 PM 42.5975 -81.9358 279° West 324 373 36,000  Level Cleveland Center
Wed 07:04:21 PM 42.6108 -82.0558 279° West 324 373 36,000  Level Cleveland Center
Wed 07:05:23 PM 42.6236 -82.1786 278° West 327 376 36,000  Level Cleveland Center
Wed 07:06:25 PM 42.6372 -82.3014 279° West 329 379 36,000  Level Cleveland Center
Wed 07:07:27 PM 42.6494 -82.4233 278° West 329 379 36,000  Level Cleveland Center
Wed 07:08:29 PM 42.6619 -82.5458 278° West 328 377 36,000  Level Cleveland Center
Wed 07:09:31 PM 42.6775 -82.6900 278° West 326 375 36,000  Level Cleveland Center
Wed 07:10:33 PM 42.6892 -82.8083 278° West 324 373 36,000  Level Cleveland Center
Wed 07:11:35 PM 42.7089 -82.9214 283° West 317 365 36,000  Level Cleveland Center
Wed 07:12:37 PM 42.7681 -82.9981 316° Northwest 296 341 36,000  Level Cleveland Center
Wed 07:13:39 PM 42.8314 -83.0708 320° Northwest 296 341 36,000 -435 Level Cleveland Center
Wed 07:14:41 PM 42.8967 -83.1453 320° Northwest 302 348 35,100 -968 Descending Cleveland Center
Wed 07:15:43 PM 42.9656 -83.2444 314° West 303 349 34,000 -1,016 Descending Cleveland Center
Wed 07:16:45 PM 42.9669 -83.3689 271° West 334 384 33,000 -968 Descending Cleveland Center
Wed 07:17:47 PM 42.9592 -83.4978 265° West 338 389 32,000 -488 Descending Cleveland Center
Wed 07:18:48 PM 42.9506 -83.6328 265° West 354 407 32,000  Level Cleveland Center
Wed 07:19:50 PM 42.9417 -83.7669 265° West 356 410 32,000  Level Cleveland Center
Wed 07:20:52 PM 42.9322 -83.9019 265° West 357 411 32,000  Level Cleveland Center
Wed 07:21:54 PM 42.9217 -84.0647 265° West 360 414 32,000  Level Cleveland Center
Wed 07:22:56 PM 42.9114 -84.2011 264° West 363 418 32,000  Level Cleveland Center
Wed 07:23:58 PM 42.9022 -84.3464 265° West 363 418 32,000  Level Cleveland Center
Wed 07:24:59 PM 42.8917 -84.4844 264° West 364 419 32,000  Level Cleveland Center
Wed 07:26:01 PM 42.8797 -84.6244 263° West 367 422 32,000  Level Cleveland Center
Wed 07:27:03 PM 42.8653 -84.7647 262° West 371 427 32,000  Level Cleveland Center
Wed 07:28:05 PM 42.8508 -84.9044 262° West 373 429 32,000  Level Cleveland Center
Wed 07:28:36 PM 42.8428 -84.9886 263° West 373 429 32,000  Level Chicago Center
Wed 07:29:38 PM 42.8272 -85.1300 262° West 375 432 32,000  Level Chicago Center
Wed 07:30:41 PM 42.8117 -85.2711 262° West 375 432 32,000 -288 Level Chicago Center
Wed 07:31:43 PM 42.7961 -85.4133 262° West 378 435 31,400 -871 Descending Chicago Center
Wed 07:32:45 PM 42.7725 -85.5800 259° West 376 433 30,200 -1,161 Descending Chicago Center
Wed 07:33:47 PM 42.7464 -85.7228 256° West 380 437 29,000 -1,790 Descending Chicago Center
Wed 07:34:49 PM 42.7197 -85.8686 256° West 391 450 26,500 -2,565 Descending Chicago Center
Wed 07:35:51 PM 42.6933 -86.0144 256° West 393 452 23,700 -2,806 Descending Chicago Center
Wed 07:36:53 PM 42.6675 -86.1525 256° West 380 437 20,700 -1,839 Descending Chicago Center
Wed 07:37:55 PM 42.6439 -86.2847 256° West 363 418 19,900 -968 Descending Chicago Center
Wed 07:38:57 PM 42.6181 -86.4142 255° West 357 411 18,700 -1,248 Descending Chicago Center
Wed 07:40:00 PM 42.5894 -86.5717 256° West 358 412 17,300 -1,296 Descending Chicago Center
Wed 07:41:02 PM 42.5647 -86.7031 256° West 358 412 16,000 -1,258 Descending Chicago Center
Wed 07:42:04 PM 42.5322 -86.8331 251° West 361 415 14,700 -1,500 Descending Chicago Center
Wed 07:43:06 PM 42.4969 -86.9583 249° West 361 415 12,900 -1,403 Descending Chicago Center
Wed 07:44:08 PM 42.4642 -87.0792 250° West 344 396 11,800 -919 Descending Chicago Center
Wed 07:45:10 PM 42.4303 -87.2006 249° West 342 394 11,000 -387 Descending Chicago Center
Wed 07:46:12 PM 42.3969 -87.3225 250° West 285 328 11,000  Level Chicago Center
Wed 07:47:14 PM 42.3728 -87.4106 250° West 279 321 11,000 -194 Level Chicago Center
Wed 07:48:16 PM 42.3461 -87.5089 250° West 278 320 10,600 -774 Descending Chicago Center
Wed 07:49:18 PM 42.2819 -87.5958 225° Southwest 279 321 9,400 -1,113 Descending Chicago Center
Wed 07:50:20 PM 42.2181 -87.6633 218° Southwest 275 316 8,300 -968 Descending Chicago Center
Wed 07:51:22 PM 42.1594 -87.7242 218° Southwest 267 307 7,400 -629 Descending Chicago Center
Wed 07:52:24 PM 42.1025 -87.7861 219° Southwest 266 306 7,000 -194 Descending Chicago Center
Wed 07:53:26 PM 42.0914 -87.8897 262° West 265 305 7,000  Level Chicago Center
Wed 07:54:28 PM 42.0917 -87.9872 270° West 262 302 7,000 -774 Level Chicago Center
Wed 07:55:30 PM 42.0911 -88.0783 270° West 232 267 5,400 -1,355 Descending Chicago Center
Wed 07:56:32 PM 42.0839 -88.1556 263° West 214 246 4,200 -1,113 Descending Chicago Center
Wed 07:57:34 PM 42.0378 -88.1356 162° South 187 215 3,100 -823 Descending Chicago Center
Wed 07:58:36 PM 42.0125 -88.0861 125° Southeast 162 186 2,500 -387 Descending Chicago Center
Wed 07:59:38 PM 42.0014 -88.0311 105° East 144 166 2,300 -435 Descending Chicago Center
Wed 08:00:40 PM 42.0019 -87.9844 89° East 129 148 1,600 -677 Descending Chicago Center
Wed 08:01:42 PM 42.0017 -87.9392 90° East 126 145 900 -677 Descending Chicago Center

Login

Don't have an account? Register now (free) for customized features, flight alerts, and more!